Time;durP1;ratioP1;P1;durP2;ratioP2;P2;SDS_P1;SDS_P2;PMS_P1;PMS_P2;Temp;Humidity;BMP_temperature;BMP_pressure;BME280_temperature;BME280_humidity;BME280_pressure;Samples;Min_cycle;Max_cycle;Signal;HPM_P1;HPM_P2
2023/10/09 00:01:01;;;;;;;31.03;20.80;;;11.40;99.90;;;;;;5096077;28;20224;-69
2023/10/09 00:03:28;;;;;;;29.97;19.03;;;11.30;99.90;;;;;;5096302;28;20196;-69
2023/10/09 00:05:55;;;;;;;36.23;22.60;;;11.30;99.90;;;;;;5096127;28;20231;-68
2023/10/09 00:08:26;;;;;;;33.63;21.20;;;11.30;99.90;;;;;;5096069;28;20214;-69
2023/10/09 00:10:54;;;;;;;29.97;21.20;;;11.40;99.90;;;;;;5096005;28;20235;-69
2023/10/09 00:13:27;;;;;;;31.53;20.70;;;11.40;99.90;;;;;;5096118;28;20262;-69
2023/10/09 00:16:00;;;;;;;25.63;18.87;;;11.30;99.90;;;;;;5096091;28;20204;-69
2023/10/09 00:18:29;;;;;;;29.47;20.47;;;11.20;99.90;;;;;;5095899;28;20232;-69
2023/10/09 00:21:00;;;;;;;28.77;20.37;;;11.30;99.90;;;;;;5095813;28;20714;-70
2023/10/09 00:23:28;;;;;;;35.97;20.37;;;11.30;99.90;;;;;;5095760;28;20269;-70
2023/10/09 00:26:08;;;;;;;29.73;19.10;;;11.30;99.90;;;;;;5096052;28;20569;-70
2023/10/09 00:28:36;;;;;;;29.13;19.93;;;11.40;99.90;;;;;;5095643;28;20736;-70
2023/10/09 00:31:07;;;;;;;27.93;19.87;;;11.40;99.90;;;;;;5095720;28;20200;-70
2023/10/09 00:33:34;;;;;;;30.00;19.67;;;11.40;99.90;;;;;;5095676;28;20204;-69
2023/10/09 00:36:10;;;;;;;29.23;20.40;;;11.40;99.90;;;;;;5095569;28;20200;-70
2023/10/09 00:38:38;;;;;;;33.80;20.53;;;11.50;99.90;;;;;;5095735;28;20249;-69
2023/10/09 00:41:11;;;;;;;29.10;20.47;;;11.60;99.90;;;;;;5095803;28;20225;-69
2023/10/09 00:43:42;;;;;;;31.37;20.27;;;11.70;99.90;;;;;;5095488;28;20235;-69
2023/10/09 00:46:23;;;;;;;29.53;19.53;;;11.70;99.90;;;;;;5095245;28;20200;-70
2023/10/09 00:48:52;;;;;;;31.20;21.00;;;11.80;99.90;;;;;;5095478;28;20203;-70
2023/10/09 00:51:21;;;;;;;31.43;20.33;;;11.80;99.90;;;;;;5095395;28;20225;-70
2023/10/09 00:53:51;;;;;;;31.47;19.93;;;11.70;99.90;;;;;;5095535;28;20207;-70
2023/10/09 00:56:28;;;;;;;30.40;19.40;;;11.80;99.90;;;;;;5095140;28;20374;-69
2023/10/09 00:59:00;;;;;;;29.60;18.77;;;11.80;99.90;;;;;;5094810;28;20220;-69
2023/10/09 01:01:34;;;;;;;28.27;19.83;;;11.80;99.90;;;;;;5095062;28;20201;-69
2023/10/09 01:04:06;;;;;;;27.07;19.43;;;11.80;99.90;;;;;;5095121;28;20204;-70
2023/10/09 01:06:34;;;;;;;25.53;18.43;;;11.90;99.90;;;;;;5095065;28;20208;-69
2023/10/09 01:09:09;;;;;;;29.30;19.67;;;11.80;99.90;;;;;;5094776;28;20727;-69
2023/10/09 01:11:48;;;;;;;27.30;18.87;;;11.80;99.90;;;;;;5094808;28;20528;-69
2023/10/09 01:14:15;;;;;;;27.87;17.57;;;11.70;99.90;;;;;;5094923;28;20228;-69
2023/10/09 01:16:44;;;;;;;26.03;17.00;;;11.70;99.90;;;;;;5094674;28;20671;-70
2023/10/09 01:19:19;;;;;;;26.30;17.43;;;11.80;99.90;;;;;;5094606;28;20220;-70
2023/10/09 01:21:47;;;;;;;23.77;17.80;;;11.80;99.90;;;;;;5094819;28;20219;-70
2023/10/09 01:24:16;;;;;;;23.90;16.47;;;11.90;99.90;;;;;;5094712;28;20219;-70
2023/10/09 01:26:46;;;;;;;28.80;18.03;;;11.90;99.90;;;;;;5094807;28;20197;-70
2023/10/09 01:29:18;;;;;;;24.37;17.00;;;11.90;99.90;;;;;;5094581;28;20204;-70
2023/10/09 01:31:51;;;;;;;24.93;17.03;;;11.90;99.90;;;;;;5094417;28;20685;-70
2023/10/09 01:34:19;;;;;;;23.53;16.90;;;11.80;99.90;;;;;;5094303;28;20287;-70
2023/10/09 01:36:49;;;;;;;23.93;16.40;;;11.80;99.90;;;;;;5094508;28;20200;-70
2023/10/09 01:39:27;;;;;;;21.33;14.87;;;11.80;99.90;;;;;;5094376;28;20228;-70
2023/10/09 01:42:01;;;;;;;24.20;14.93;;;11.90;99.90;;;;;;5094267;28;20236;-70
2023/10/09 01:44:30;;;;;;;24.87;15.27;;;11.90;99.90;;;;;;5094215;28;20551;-71
2023/10/09 01:46:58;;;;;;;23.17;15.40;;;11.90;99.90;;;;;;5094114;28;20291;-70
2023/10/09 01:49:31;;;;;;;21.80;15.03;;;11.80;99.90;;;;;;5094321;28;20288;-70
2023/10/09 01:52:02;;;;;;;20.10;14.80;;;11.80;99.90;;;;;;5094173;28;20585;-70
2023/10/09 01:54:37;;;;;;;22.33;14.47;;;11.80;99.90;;;;;;5094371;28;20204;-70
2023/10/09 01:57:09;;;;;;;20.43;13.20;;;11.80;99.90;;;;;;5093931;28;20227;-70
2023/10/09 01:59:38;;;;;;;19.80;13.43;;;11.90;99.90;;;;;;5094050;28;20224;-70
2023/10/09 02:02:14;;;;;;;26.27;14.17;;;12.00;99.90;;;;;;5094031;28;20199;-70
2023/10/09 02:04:41;;;;;;;23.53;13.00;;;12.00;99.90;;;;;;5093983;28;20202;-69
2023/10/09 02:07:09;;;;;;;20.33;12.50;;;12.00;99.90;;;;;;5093812;28;20310;-69
2023/10/09 02:09:44;;;;;;;19.17;14.07;;;12.00;99.90;;;;;;5093593;28;20679;-70
2023/10/09 02:12:12;;;;;;;16.33;12.07;;;11.90;99.90;;;;;;5092714;28;20808;-69
2023/10/09 02:14:41;;;;;;;20.00;13.20;;;12.10;99.90;;;;;;5093777;28;20246;-70
2023/10/09 02:17:17;;;;;;;20.73;12.13;;;12.10;99.90;;;;;;5093660;28;20204;-69
2023/10/09 02:19:48;;;;;;;23.90;12.63;;;12.20;99.90;;;;;;5093482;28;20706;-69
2023/10/09 02:22:15;;;;;;;17.47;11.33;;;12.20;99.90;;;;;;5093446;28;20207;-69
2023/10/09 02:24:51;;;;;;;20.03;10.83;;;12.40;99.90;;;;;;5093380;28;20667;-70
2023/10/09 02:27:40;;;;;;;19.23;11.37;;;12.40;99.90;;;;;;5093566;28;20196;-69
2023/10/09 02:30:19;;;;;;;13.67;9.73;;;12.40;99.90;;;;;;5093480;28;20540;-69
2023/10/09 02:32:52;;;;;;;24.17;11.00;;;12.40;99.90;;;;;;5093242;28;20206;-70
2023/10/09 02:35:27;;;;;;;16.43;10.47;;;12.40;99.90;;;;;;5093497;28;20609;-69
2023/10/09 02:37:54;;;;;;;18.00;10.63;;;12.30;99.90;;;;;;5093197;28;20666;-70
2023/10/09 02:40:25;;;;;;;17.30;9.90;;;12.20;99.90;;;;;;5093057;28;20273;-69
2023/10/09 02:42:53;;;;;;;14.87;9.50;;;12.20;99.90;;;;;;5074926;28;20590;-69
2023/10/09 02:45:29;;;;;;;16.03;10.00;;;12.20;99.90;;;;;;5093043;28;20203;-69
2023/10/09 02:47:55;;;;;;;15.43;9.70;;;12.30;99.90;;;;;;5093218;28;20257;-69
2023/10/09 02:50:23;;;;;;;15.37;8.70;;;12.40;99.90;;;;;;5093149;28;20196;-69
2023/10/09 02:52:53;;;;;;;19.97;9.73;;;12.40;99.90;;;;;;5093047;28;20204;-70
2023/10/09 02:55:27;;;;;;;14.97;8.90;;;12.30;99.90;;;;;;5093036;28;20246;-70
2023/10/09 02:58:04;;;;;;;15.30;9.07;;;12.30;99.90;;;;;;5093377;28;20200;-70
2023/10/09 03:00:35;;;;;;;16.80;8.80;;;12.40;99.90;;;;;;5093386;28;20262;-69
2023/10/09 03:03:06;;;;;;;17.03;9.80;;;12.40;99.90;;;;;;5092883;28;20679;-70
2023/10/09 03:05:33;;;;;;;14.43;8.80;;;12.50;99.90;;;;;;5092963;28;20232;-69
2023/10/09 03:08:00;;;;;;;16.70;8.70;;;12.40;99.90;;;;;;5092771;28;20192;-69
2023/10/09 03:10:28;;;;;;;17.97;9.20;;;12.40;99.90;;;;;;5092943;28;20196;-69
2023/10/09 03:12:54;;;;;;;17.33;8.87;;;12.40;99.90;;;;;;5093169;28;20200;-69
2023/10/09 03:15:21;;;;;;;14.87;8.53;;;12.50;99.90;;;;;;5092753;28;20200;-69
2023/10/09 03:17:48;;;;;;;13.90;8.60;;;12.50;99.90;;;;;;5092838;28;20207;-69
2023/10/09 03:20:17;;;;;;;12.73;7.77;;;12.50;99.90;;;;;;5092625;28;20216;-69
2023/10/09 03:22:45;;;;;;;16.77;8.40;;;12.50;99.90;;;;;;5094085;28;20203;-69
2023/10/09 03:25:14;;;;;;;13.50;8.50;;;12.50;99.90;;;;;;5097054;28;20228;-70
2023/10/09 03:27:44;;;;;;;15.53;8.90;;;12.50;99.90;;;;;;5096941;28;20243;-69
2023/10/09 03:30:16;;;;;;;13.90;8.20;;;12.70;99.90;;;;;;5096898;28;20286;-69
2023/10/09 03:32:44;;;;;;;16.50;8.80;;;12.70;99.90;;;;;;5096725;28;20559;-69
2023/10/09 03:35:17;;;;;;;16.90;7.83;;;12.70;99.90;;;;;;5096593;28;20722;-69
2023/10/09 03:37:44;;;;;;;15.40;8.10;;;12.80;99.90;;;;;;5096854;28;20767;-70
2023/10/09 03:40:17;;;;;;;18.10;8.03;;;12.80;99.90;;;;;;5096697;28;20223;-70
2023/10/09 03:42:45;;;;;;;18.60;8.00;;;12.80;99.90;;;;;;5096771;28;20718;-69
2023/10/09 03:45:24;;;;;;;16.90;7.87;;;12.80;99.90;;;;;;5096584;28;20249;-69
2023/10/09 03:47:56;;;;;;;18.23;8.07;;;12.70;99.90;;;;;;5096702;28;20200;-69
2023/10/09 03:50:26;;;;;;;18.47;7.87;;;12.60;99.90;;;;;;5096358;28;20200;-69
2023/10/09 03:52:54;;;;;;;17.33;7.67;;;12.60;99.90;;;;;;5096453;28;20205;-68
2023/10/09 03:55:22;;;;;;;13.83;7.33;;;12.70;99.90;;;;;;5096326;28;20196;-68
2023/10/09 03:57:50;;;;;;;15.67;7.60;;;12.70;99.90;;;;;;5096176;28;20200;-69
2023/10/09 04:00:28;;;;;;;16.60;7.53;;;12.80;99.90;;;;;;5096018;28;20281;-69
2023/10/09 04:02:55;;;;;;;18.60;7.50;;;12.80;99.90;;;;;;5096163;28;20223;-69
2023/10/09 04:05:21;;;;;;;18.57;8.00;;;12.70;99.90;;;;;;5096204;28;20196;-69
2023/10/09 04:07:49;;;;;;;15.50;7.33;;;12.70;99.90;;;;;;5096016;28;20203;-68
2023/10/09 04:10:32;;;;;;;13.03;7.17;;;12.70;99.90;;;;;;5095933;28;20242;-69
2023/10/09 04:13:02;;;;;;;15.23;7.50;;;12.70;99.90;;;;;;5096139;28;20200;-69
2023/10/09 04:15:35;;;;;;;14.20;7.53;;;12.70;99.90;;;;;;5096071;28;20258;-69
2023/10/09 04:18:04;;;;;;;15.07;7.27;;;12.70;99.90;;;;;;5095931;28;20670;-69
2023/10/09 04:23:16;;;;;;;15.33;7.07;;;12.60;99.90;;;;;;5069737;28;20279;-69
2023/10/09 04:25:45;;;;;;;17.47;7.70;;;12.60;99.90;;;;;;5095916;28;20201;-69
2023/10/09 04:28:19;;;;;;;12.27;7.40;;;12.60;99.90;;;;;;5095773;28;20192;-69
2023/10/09 04:30:53;;;;;;;18.33;7.23;;;12.70;99.90;;;;;;5095660;28;20286;-70
2023/10/09 04:33:29;;;;;;;17.73;7.20;;;12.70;99.90;;;;;;5095471;28;20200;-69
2023/10/09 04:38:37;;;;;;;14.60;7.27;;;12.70;99.90;;;;;;5094916;28;20277;-69
2023/10/09 04:41:07;;;;;;;13.83;6.77;;;12.80;99.90;;;;;;5095222;28;20282;-69
2023/10/09 04:43:34;;;;;;;16.87;7.30;;;12.90;99.90;;;;;;5095368;28;20201;-69
2023/10/09 04:46:07;;;;;;;15.80;6.83;;;12.90;99.90;;;;;;5095136;28;20205;-69
2023/10/09 04:48:37;;;;;;;14.43;6.27;;;13.00;99.90;;;;;;5095255;28;20282;-69
2023/10/09 04:51:34;;;;;;;20.40;6.43;;;13.10;99.90;;;;;;5094956;28;20683;-69
2023/10/09 04:54:12;;;;;;;14.73;6.40;;;13.00;99.90;;;;;;5095099;28;20242;-69
2023/10/09 04:56:51;;;;;;;16.37;6.53;;;13.00;99.90;;;;;;5095368;28;20220;-70
2023/10/09 04:59:24;;;;;;;17.10;7.10;;;12.90;99.90;;;;;;5095346;28;20203;-70
2023/10/09 05:01:58;;;;;;;15.60;6.50;;;12.90;99.90;;;;;;5095043;28;20618;-70
2023/10/09 05:04:39;;;;;;;18.27;6.50;;;13.00;99.90;;;;;;5095152;28;20223;-72
2023/10/09 05:07:22;;;;;;;15.50;6.57;;;13.10;99.90;;;;;;5095225;28;20254;-71
2023/10/09 05:10:09;;;;;;;14.90;6.33;;;13.10;99.90;;;;;;5095032;28;20205;-72
2023/10/09 05:12:46;;;;;;;15.17;6.70;;;13.10;99.90;;;;;;5095313;28;20200;-69
2023/10/09 05:15:14;;;;;;;12.83;6.87;;;13.10;99.90;;;;;;5094836;28;20654;-69
2023/10/09 05:17:51;;;;;;;11.97;6.97;;;13.10;99.90;;;;;;5094978;28;20192;-69
2023/10/09 05:23:26;;;;;;;18.63;7.33;;;13.20;99.90;;;;;;5093792;28;20196;-68
2023/10/09 05:25:55;;;;;;;20.27;8.07;;;13.30;99.90;;;;;;5094610;28;20269;-68
2023/10/09 05:31:56;;;;;;;17.07;8.00;;;13.20;99.90;;;;;;5131133;27;20577;-69
2023/10/09 05:34:22;;;;;;;18.70;7.50;;;13.30;99.90;;;;;;5131103;27;20210;-69
2023/10/09 05:36:49;;;;;;;16.80;7.53;;;13.30;99.90;;;;;;5130891;28;20203;-68
2023/10/09 05:39:22;;;;;;;21.37;8.53;;;13.20;99.90;;;;;;5130722;28;20228;-69
2023/10/09 05:41:52;;;;;;;18.07;9.57;;;13.20;99.90;;;;;;5130815;28;20662;-69
2023/10/09 05:50:01;;;;;;;17.77;8.27;;;13.40;99.90;;;;;;5130231;27;20226;-69
2023/10/09 05:53:00;;;;;;;18.17;7.90;;;13.50;99.90;;;;;;5130370;28;20191;-69
2023/10/09 06:04:15;;;;;;;18.87;6.97;;;13.70;99.90;;;;;;5130186;28;20202;-70
2023/10/09 06:06:44;;;;;;;19.40;7.27;;;13.70;99.90;;;;;;5130460;28;20206;-69
2023/10/09 06:09:35;;;;;;;19.87;7.17;;;13.80;99.90;;;;;;5130236;27;20246;-69
2023/10/09 06:14:57;;;;;;;11.27;5.80;;;13.90;99.90;;;;;;5129956;28;20191;-69
2023/10/09 06:17:26;;;;;;;15.27;6.73;;;14.00;99.90;;;;;;5130231;28;20228;-69
2023/10/09 06:19:58;;;;;;;16.67;6.47;;;14.20;99.90;;;;;;5130424;27;20286;-69
2023/10/09 06:25:18;;;;;;;17.97;6.70;;;14.20;99.90;;;;;;5092761;27;20550;-69
2023/10/09 06:27:57;;;;;;;14.73;5.67;;;14.20;99.90;;;;;;5130088;28;20191;-70
2023/10/09 06:30:27;;;;;;;13.20;6.07;;;14.30;99.90;;;;;;5130045;27;20239;-69
2023/10/09 06:33:19;;;;;;;15.57;5.80;;;14.30;99.90;;;;;;5130115;28;20230;-69
2023/10/09 06:35:54;;;;;;;15.37;5.80;;;14.30;99.90;;;;;;5129811;28;20195;-69
2023/10/09 06:38:22;;;;;;;15.33;6.27;;;14.40;99.90;;;;;;5129797;28;20286;-69
2023/10/09 06:43:42;;;;;;;23.87;7.13;;;14.50;99.90;;;;;;5116334;28;20245;-69
2023/10/09 06:49:28;;;;;;;12.80;6.07;;;14.70;99.90;;;;;;5116156;28;20277;-69
2023/10/09 06:51:55;;;;;;;15.97;6.17;;;14.90;99.90;;;;;;5115841;28;20199;-69
2023/10/09 06:54:25;;;;;;;11.80;5.67;;;15.00;99.90;;;;;;5116043;28;20199;-69
2023/10/09 07:00:51;;;;;;;19.83;5.60;;;15.30;99.90;;;;;;5115692;28;20547;-69
2023/10/09 07:02:45;;;;;;;17.90;5.63;;;15.40;99.90;;;;;;5115572;28;20204;-69
2023/10/09 07:05:17;;;;;;;16.23;5.72;;;15.60;99.90;;;;;;5115786;28;20321;-69
2023/10/09 07:07:54;;;;;;;15.07;6.38;;;15.70;99.90;;;;;;5115570;28;20204;-69
2023/10/09 07:10:32;;;;;;;15.27;6.40;;;15.80;99.90;;;;;;5115696;28;20249;-69
2023/10/09 07:12:59;;;;;;;19.63;6.13;;;15.90;99.90;;;;;;5115647;28;20222;-68
2023/10/09 07:18:19;;;;;;;19.73;6.43;;;16.00;99.90;;;;;;5081368;28;20191;-69
2023/10/09 07:20:58;;;;;;;13.75;5.80;;;16.10;99.90;;;;;;5115376;28;20286;-69
2023/10/09 07:23:32;;;;;;;20.00;6.30;;;16.20;99.90;;;;;;5115549;28;20290;-69
2023/10/09 07:26:17;;;;;;;16.15;6.25;;;16.30;99.90;;;;;;5115322;28;20531;-69
2023/10/09 07:28:48;;;;;;;17.65;6.60;;;16.30;99.90;;;;;;5115534;28;20195;-69
2023/10/09 07:31:39;;;;;;;16.10;7.10;;;16.50;99.90;;;;;;5114992;28;20271;-69
2023/10/09 07:34:30;;;;;;;21.13;6.03;;;16.50;99.90;;;;;;5115297;28;20218;-69
2023/10/09 07:36:56;;;;;;;17.13;6.03;;;16.50;99.90;;;;;;5115023;28;20661;-69
2023/10/09 07:39:34;;;;;;;16.65;5.55;;;16.50;99.90;;;;;;5115280;28;20229;-69
2023/10/09 07:42:15;;;;;;;20.23;6.25;;;16.50;99.90;;;;;;5115085;28;20195;-68
2023/10/09 07:44:46;;;;;;;19.08;6.70;;;16.60;99.90;;;;;;5115112;28;20199;-69
2023/10/09 07:47:17;;;;;;;17.08;6.18;;;16.50;99.90;;;;;;5114777;28;20200;-69
2023/10/09 07:49:48;;;;;;;17.52;5.82;;;16.50;99.90;;;;;;5114967;28;20237;-69
2023/10/09 07:52:16;;;;;;;18.05;6.10;;;16.50;99.90;;;;;;5114853;28;20202;-69
2023/10/09 07:54:52;;;;;;;16.40;6.70;;;16.50;99.90;;;;;;5114024;28;20200;-69
2023/10/09 07:57:25;;;;;;;16.40;6.38;;;16.60;99.90;;;;;;5114626;28;20650;-69
2023/10/09 08:00:00;;;;;;;18.52;5.97;;;16.60;99.90;;;;;;5115022;28;20200;-69
2023/10/09 08:02:32;;;;;;;15.20;6.07;;;16.70;99.90;;;;;;5114563;28;20195;-69
2023/10/09 08:05:04;;;;;;;16.88;6.60;;;16.80;99.90;;;;;;5114801;28;20273;-69
2023/10/09 08:07:35;;;;;;;17.35;6.10;;;16.90;99.90;;;;;;5114515;28;20292;-69
2023/10/09 08:12:59;;;;;;;16.90;6.35;;;17.00;99.90;;;;;;5082645;28;20194;-70
2023/10/09 08:15:34;;;;;;;17.35;6.35;;;17.10;99.90;;;;;;5114538;28;20192;-69
2023/10/09 08:18:09;;;;;;;19.58;6.47;;;17.10;99.90;;;;;;5114438;28;20222;-69
2023/10/09 08:21:19;;;;;;;20.02;6.65;;;17.10;99.90;;;;;;5114310;28;20650;-69
2023/10/09 08:23:28;;;;;;;19.95;6.65;;;17.20;99.90;;;;;;5113893;28;20202;-70
2023/10/09 08:26:12;;;;;;;17.10;6.55;;;17.30;99.90;;;;;;5114157;28;20222;-69
2023/10/09 08:28:42;;;;;;;20.25;5.75;;;17.30;99.90;;;;;;5114072;28;20222;-69
2023/10/09 08:31:34;;;;;;;12.90;5.88;;;17.30;99.90;;;;;;5113840;28;20285;-69
2023/10/09 08:34:00;;;;;;;17.38;5.85;;;17.40;99.90;;;;;;5114101;28;20196;-69
2023/10/09 08:36:29;;;;;;;22.05;6.32;;;17.40;99.90;;;;;;5113855;28;20196;-69
2023/10/09 08:38:58;;;;;;;13.63;5.93;;;17.40;99.90;;;;;;5113969;28;20260;-69
2023/10/09 08:41:29;;;;;;;18.17;6.07;;;17.30;99.90;;;;;;5113714;28;20202;-69
2023/10/09 08:43:58;;;;;;;15.93;6.13;;;17.50;99.90;;;;;;5114027;28;20195;-70
2023/10/09 08:46:27;;;;;;;13.48;5.68;;;17.60;99.90;;;;;;5113946;28;20196;-68
2023/10/09 08:48:56;;;;;;;15.77;5.60;;;17.50;99.90;;;;;;5113865;28;20202;-69
2023/10/09 08:51:25;;;;;;;14.30;5.38;;;17.60;99.90;;;;;;5113642;28;20219;-68
2023/10/09 08:53:52;;;;;;;16.42;6.22;;;17.60;99.90;;;;;;5113529;28;20663;-69
2023/10/09 08:56:22;;;;;;;25.30;5.63;;;17.90;99.90;;;;;;5113947;28;20248;-69
2023/10/09 08:58:51;;;;;;;16.25;6.15;;;18.00;99.90;;;;;;5113749;28;20199;-69
2023/10/09 09:01:21;;;;;;;24.73;5.78;;;18.30;99.90;;;;;;5113755;28;20196;-69
2023/10/09 09:03:50;;;;;;;16.08;5.60;;;18.20;99.90;;;;;;5113498;28;20199;-69
2023/10/09 09:06:19;;;;;;;21.23;6.13;;;18.50;99.90;;;;;;5113404;28;20205;-69
2023/10/09 09:08:46;;;;;;;15.20;5.40;;;18.80;99.90;;;;;;5113690;28;20192;-70
2023/10/09 09:11:17;;;;;;;18.08;5.80;;;19.10;99.90;;;;;;5113390;28;20578;-69
2023/10/09 09:13:48;;;;;;;24.17;6.43;;;18.90;99.90;;;;;;5113607;28;20609;-69
2023/10/09 09:16:20;;;;;;;18.58;6.00;;;18.90;99.90;;;;;;5113501;28;20200;-69
2023/10/09 09:19:03;;;;;;;20.65;6.28;;;18.90;99.90;;;;;;5113179;28;20199;-69
2023/10/09 09:21:37;;;;;;;18.85;6.05;;;18.80;99.90;;;;;;5113415;28;20203;-69
2023/10/09 09:24:15;;;;;;;20.67;6.07;;;19.10;99.90;;;;;;5113283;28;20191;-69
2023/10/09 09:26:45;;;;;;;20.00;6.72;;;19.40;99.90;;;;;;5113391;28;20195;-70
2023/10/09 09:29:13;;;;;;;21.75;5.45;;;19.50;99.90;;;;;;5112969;28;20200;-69
2023/10/09 09:31:53;;;;;;;15.90;5.45;;;19.50;99.90;;;;;;5113400;28;20227;-70
2023/10/09 09:34:25;;;;;;;20.85;6.43;;;19.90;99.90;;;;;;5113370;28;20195;-70
2023/10/09 09:36:56;;;;;;;19.63;6.22;;;20.30;99.90;;;;;;5113253;28;20550;-69
2023/10/09 09:39:27;;;;;;;19.63;6.28;;;20.30;99.90;;;;;;5113170;28;20204;-69
2023/10/09 09:42:03;;;;;;;21.88;5.75;;;20.30;99.90;;;;;;5113294;28;20191;-69
2023/10/09 09:44:33;;;;;;;18.95;6.05;;;20.30;99.90;;;;;;5113277;28;20217;-69
2023/10/09 09:47:06;;;;;;;18.77;5.53;;;20.30;99.90;;;;;;5113152;28;20260;-69
2023/10/09 09:49:34;;;;;;;16.38;5.75;;;20.30;99.90;;;;;;5113065;28;20196;-70
2023/10/09 09:52:10;;;;;;;16.38;5.57;;;20.30;99.90;;;;;;5112813;28;20613;-70
2023/10/09 09:54:38;;;;;;;28.10;6.88;;;20.90;99.90;;;;;;5113275;28;20286;-71
2023/10/09 09:57:08;;;;;;;19.27;5.32;;;21.10;99.90;;;;;;5113220;28;20196;-70
2023/10/09 09:59:41;;;;;;;16.13;5.18;;;20.50;99.90;;;;;;5113077;28;20235;-70
2023/10/09 10:02:20;;;;;;;15.40;5.18;;;20.00;99.90;;;;;;5113050;28;20618;-71
2023/10/09 10:04:49;;;;;;;19.45;5.63;;;19.90;99.90;;;;;;5113012;28;20608;-71
2023/10/09 10:07:17;;;;;;;23.83;6.28;;;19.60;99.90;;;;;;5113095;28;20204;-70
2023/10/09 10:09:44;;;;;;;19.23;5.50;;;19.40;99.90;;;;;;5113057;28;20200;-70
2023/10/09 10:12:14;;;;;;;18.48;5.70;;;19.20;99.90;;;;;;5112786;28;20223;-70
2023/10/09 10:14:56;;;;;;;18.88;5.35;;;19.20;99.90;;;;;;5112862;28;20227;-70
2023/10/09 10:17:24;;;;;;;19.70;5.93;;;19.40;99.90;;;;;;5115406;28;20196;-71
2023/10/09 10:20:00;;;;;;;20.05;5.82;;;19.50;99.90;;;;;;5116663;28;20315;-71
2023/10/09 10:22:29;;;;;;;17.70;5.13;;;19.50;99.90;;;;;;5116761;28;20210;-70
2023/10/09 10:24:57;;;;;;;19.10;5.75;;;19.70;99.90;;;;;;5116713;28;20202;-70
2023/10/09 10:27:31;;;;;;;22.92;5.63;;;21.00;99.90;;;;;;5116372;28;20196;-70
2023/10/09 10:30:33;;;;;;;21.15;6.18;;;21.60;99.90;;;;;;5116367;28;20223;-70
2023/10/09 10:33:10;;;;;;;18.27;5.55;;;21.70;99.10;;;;;;5116399;28;20196;-70
2023/10/09 10:35:46;;;;;;;13.85;5.32;;;21.40;98.80;;;;;;5116337;28;20725;-70
2023/10/09 10:38:38;;;;;;;20.10;5.30;;;21.30;98.20;;;;;;5116219;28;20602;-70
2023/10/09 10:41:12;;;;;;;24.30;5.57;;;20.50;99.00;;;;;;5116320;28;20239;-70
2023/10/09 10:43:54;;;;;;;15.63;5.65;;;20.30;99.60;;;;;;5116163;28;20199;-69
2023/10/09 10:46:30;;;;;;;22.15;5.85;;;20.40;99.90;;;;;;5115961;28;20226;-70
2023/10/09 10:49:14;;;;;;;22.40;6.32;;;20.10;99.60;;;;;;5116188;28;20214;-70
2023/10/09 10:51:47;;;;;;;13.85;5.43;;;19.60;99.90;;;;;;5116003;28;20585;-70
2023/10/09 10:54:45;;;;;;;16.52;5.55;;;19.30;99.90;;;;;;5115957;28;20200;-70
2023/10/09 10:57:19;;;;;;;23.45;5.97;;;18.80;99.90;;;;;;5115990;28;20248;-70
2023/10/09 10:59:49;;;;;;;18.08;5.50;;;18.50;99.90;;;;;;5115796;28;20191;-70
2023/10/09 11:02:27;;;;;;;22.70;5.88;;;18.50;99.90;;;;;;5115837;28;20191;-70
2023/10/09 11:05:14;;;;;;;16.20;4.95;;;18.50;99.90;;;;;;5115664;28;20202;-70
2023/10/09 11:07:41;;;;;;;20.58;5.45;;;18.70;99.90;;;;;;5116018;28;20196;-70
2023/10/09 11:10:10;;;;;;;17.27;5.60;;;18.80;99.90;;;;;;5115878;28;20227;-69
2023/10/09 11:13:30;;;;;;;13.60;5.43;;;18.90;99.90;;;;;;5115693;28;20224;-69
2023/10/09 11:15:55;;;;;;;16.85;5.60;;;18.80;99.90;;;;;;5115352;28;20206;-69
2023/10/09 11:18:25;;;;;;;16.17;5.50;;;18.70;99.90;;;;;;5115735;28;20203;-70
2023/10/09 11:21:22;;;;;;;21.27;5.47;;;18.80;99.90;;;;;;5115681;28;20269;-68
2023/10/09 11:23:57;;;;;;;20.10;5.72;;;18.90;99.90;;;;;;5115154;28;20199;-70
2023/10/09 11:26:25;;;;;;;18.35;5.25;;;19.10;99.90;;;;;;5115642;28;20199;-70
2023/10/09 11:29:14;;;;;;;17.48;5.47;;;19.10;99.90;;;;;;5115373;28;20204;-70
2023/10/09 11:31:45;;;;;;;21.88;5.72;;;19.00;99.90;;;;;;5115354;28;20617;-69
2023/10/09 11:34:28;;;;;;;18.27;5.68;;;19.10;99.90;;;;;;5115226;28;20596;-70
2023/10/09 11:36:57;;;;;;;19.80;5.93;;;19.00;99.90;;;;;;5115406;28;20199;-70
2023/10/09 11:39:34;;;;;;;17.73;5.78;;;19.20;99.90;;;;;;5115009;28;20199;-70
2023/10/09 11:42:04;;;;;;;19.95;5.65;;;19.40;99.90;;;;;;5114961;28;20585;-70
2023/10/09 11:44:44;;;;;;;16.38;5.75;;;19.60;99.90;;;;;;5115193;28;20249;-69
2023/10/09 11:47:32;;;;;;;12.30;5.20;;;19.90;99.90;;;;;;5115234;28;20191;-70
2023/10/09 11:50:12;;;;;;;21.05;5.28;;;20.00;99.90;;;;;;5114969;28;20195;-68
2023/10/09 11:53:09;;;;;;;15.98;5.28;;;19.60;99.90;;;;;;5114886;28;20265;-69
2023/10/09 11:55:36;;;;;;;18.83;5.55;;;19.90;99.90;;;;;;5115041;28;20199;-69
2023/10/09 11:58:04;;;;;;;12.23;5.15;;;20.00;99.90;;;;;;5114870;28;20279;-69
2023/10/09 12:00:42;;;;;;;10.32;4.95;;;20.00;99.90;;;;;;5114829;27;20202;-69
2023/10/09 12:03:09;;;;;;;18.10;5.55;;;20.00;99.90;;;;;;5114790;28;20202;-69
2023/10/09 12:05:35;;;;;;;15.05;4.93;;;20.00;99.90;;;;;;5114531;28;20270;-69
2023/10/09 12:08:08;;;;;;;14.52;5.30;;;20.00;99.90;;;;;;5114491;28;20195;-69
2023/10/09 12:10:38;;;;;;;12.18;5.13;;;19.90;99.90;;;;;;5114354;28;20635;-69
2023/10/09 12:13:04;;;;;;;17.67;5.38;;;20.20;99.90;;;;;;5114335;28;20223;-69
2023/10/09 12:15:37;;;;;;;16.05;5.57;;;20.30;99.90;;;;;;5114309;28;20199;-69
2023/10/09 12:18:06;;;;;;;14.77;5.18;;;20.30;99.90;;;;;;5114209;28;20200;-69
2023/10/09 12:20:35;;;;;;;16.13;4.88;;;20.20;99.90;;;;;;5114307;28;20745;-69
2023/10/09 12:23:05;;;;;;;21.23;5.32;;;20.60;99.90;;;;;;5114343;28;20626;-69
2023/10/09 12:25:33;;;;;;;12.02;5.00;;;20.80;99.90;;;;;;5114263;28;20196;-69
2023/10/09 12:28:01;;;;;;;13.07;4.55;;;20.70;99.90;;;;;;5114148;28;20199;-69
2023/10/09 12:30:28;;;;;;;16.30;5.38;;;20.20;99.90;;;;;;5113865;28;20281;-69
2023/10/09 12:32:57;;;;;;;13.27;5.60;;;20.20;99.90;;;;;;5114159;28;20219;-69
2023/10/09 12:35:24;;;;;;;16.55;5.50;;;20.50;99.90;;;;;;5114141;28;20249;-69
2023/10/09 12:37:52;;;;;;;14.98;5.05;;;20.40;99.90;;;;;;5114146;28;20214;-69
2023/10/09 12:40:24;;;;;;;15.55;4.80;;;20.40;99.00;;;;;;5113441;28;20244;-69
2023/10/09 12:42:52;;;;;;;11.20;4.78;;;21.10;99.00;;;;;;5113860;28;20681;-69
2023/10/09 12:45:25;;;;;;;14.52;5.50;;;21.90;98.00;;;;;;5113950;28;20588;-69
2023/10/09 12:47:53;;;;;;;12.82;4.80;;;23.40;95.50;;;;;;5113709;28;20199;-69
2023/10/09 12:50:27;;;;;;;15.07;5.10;;;23.70;92.90;;;;;;5113687;28;20585;-69
2023/10/09 12:52:54;;;;;;;15.02;5.45;;;24.50;91.60;;;;;;5113692;28;20233;-69
2023/10/09 12:55:31;;;;;;;11.13;4.97;;;25.30;89.40;;;;;;5113626;28;20195;-70
2023/10/09 12:58:03;;;;;;;13.02;5.28;;;25.40;84.80;;;;;;5113862;28;20562;-69
2023/10/09 13:00:32;;;;;;;15.93;5.45;;;24.50;83.90;;;;;;5113770;28;20202;-69
2023/10/09 13:03:00;;;;;;;11.25;4.97;;;23.50;86.20;;;;;;5113603;28;20211;-69
2023/10/09 13:05:27;;;;;;;15.98;4.68;;;22.80;86.70;;;;;;5113488;28;20199;-69
2023/10/09 13:07:55;;;;;;;11.60;5.43;;;22.60;86.40;;;;;;5113420;28;20199;-69
2023/10/09 13:10:25;;;;;;;15.38;4.93;;;22.00;84.70;;;;;;5113617;28;20318;-69
2023/10/09 13:12:55;;;;;;;11.77;5.22;;;21.50;88.20;;;;;;5113575;28;20234;-69
2023/10/09 13:15:22;;;;;;;9.75;4.50;;;21.80;86.80;;;;;;5113553;28;20200;-69
2023/10/09 13:17:49;;;;;;;12.20;5.00;;;22.00;85.90;;;;;;5113412;28;20264;-69
2023/10/09 13:20:16;;;;;;;13.25;4.65;;;22.20;84.00;;;;;;5113315;28;20256;-69
2023/10/09 13:22:44;;;;;;;10.02;4.75;;;21.90;85.20;;;;;;5113196;28;20199;-68
2023/10/09 13:25:16;;;;;;;12.13;4.82;;;22.00;83.70;;;;;;5113383;28;20289;-69
2023/10/09 13:27:50;;;;;;;8.43;4.55;;;22.50;82.80;;;;;;5113319;28;20282;-69
2023/10/09 13:30:21;;;;;;;12.00;4.60;;;22.40;79.80;;;;;;5112985;28;20230;-69
2023/10/09 13:32:49;;;;;;;12.20;4.93;;;22.80;78.90;;;;;;5113033;28;20313;-68
2023/10/09 13:35:18;;;;;;;13.88;5.03;;;23.50;75.70;;;;;;5113355;28;20286;-69
2023/10/09 13:37:47;;;;;;;12.73;5.10;;;24.50;74.20;;;;;;5113279;28;20207;-69
2023/10/09 13:40:26;;;;;;;12.95;5.35;;;23.90;74.30;;;;;;5113131;28;20201;-69
2023/10/09 13:42:58;;;;;;;10.60;4.35;;;23.50;70.80;;;;;;5113087;28;20199;-70
2023/10/09 13:45:27;;;;;;;12.60;5.30;;;23.20;71.30;;;;;;5112892;28;20658;-69
2023/10/09 13:47:54;;;;;;;13.43;5.00;;;23.80;68.00;;;;;;5113220;28;20282;-69
2023/10/09 13:50:22;;;;;;;13.32;5.18;;;23.70;67.80;;;;;;5113137;28;20225;-69